CST,Max TemperatureF,Mean TemperatureF,Min TemperatureF,Max Dew PointF,MeanDew PointF,Min DewpointF,Max Humidity, Mean Humidity, Min Humidity, Max Sea Level PressureIn, Mean Sea Level PressureIn, Min Sea Level PressureIn, Max VisibilityMiles, Mean VisibilityMiles, Min VisibilityMiles, Max Wind SpeedMPH, Mean Wind SpeedMPH, Max Gust SpeedMPH,PrecipitationIn, CloudCover, Events, WindDirDegrees
2014-2-1,23,15,7,17,10,1,92,80,67,30.31,30.03,29.94,10,5,1,22,8,28,0.09,6,Snow,7
2014-2-2,15,1,-13,3,-3,-15,87,73,58,30.43,30.37,30.32,10,10,10,16,6,20,0.00,0,,262
2014-2-3,30,12,-6,16,5,-9,91,72,53,30.35,30.32,30.28,10,10,9,14,6,17,T,2,,178
2014-2-4,21,13,5,18,11,0,91,80,68,30.39,30.32,30.25,6,2,0,25,12,30,0.05,8,Snow,27
2014-2-5,6,1,-4,0,-4,-11,87,75,63,30.64,30.47,30.31,10,4,1,29,19,38,0.01,7,Snow,340
2014-2-6,8,-2,-13,-3,-9,-17,91,76,60,30.63,30.55,30.46,10,10,10,20,11,23,0.00,1,,273
2014-2-7,15,2,-11,3,-5,-14,83,69,55,30.44,30.35,30.25,10,10,10,17,9,20,0.00,2,,223
2014-2-8,19,15,10,12,8,5,84,76,67,30.24,30.14,30.06,10,4,0,12,7,14,0.02,8,Fog-Snow,183
2014-2-9,12,2,-9,7,-5,-13,88,74,60,30.49,30.36,30.23,10,9,6,23,12,28,0.00,2,,322
2014-2-10,5,-7,-20,-6,-13,-24,83,71,59,30.59,30.55,30.48,10,10,10,14,6,17,0.00,0,,323
2014-2-11,14,-3,-21,3,-7,-26,86,72,58,30.56,30.39,30.17,10,10,10,17,7,23,0.00,4,,168
2014-2-12,24,15,5,14,9,1,100,81,61,30.22,30.08,29.90,10,5,1,16,6,21,0.03,6,Snow,174
2014-2-13,42,29,15,30,18,7,88,72,56,29.91,29.74,29.63,10,8,4,29,15,37,0.00,2,,266
2014-2-14,15,8,0,10,5,-4,86,77,67,30.14,29.91,29.73,10,5,1,23,12,27,0.03,5,Snow,340
2014-2-15,34,16,-3,28,12,-7,87,78,68,30.12,29.95,29.82,10,6,0,32,11,42,0.03,6,Fog-Snow,179
2014-2-16,23,20,16,19,14,11,88,78,68,30.25,30.14,30.03,10,8,5,20,12,26,0.00,4,,62
2014-2-17,41,32,22,30,22,16,92,74,55,29.98,29.85,29.78,10,5,0,29,13,36,0.24,5,Fog-Rain-Snow,195
2014-2-18,46,33,20,36,27,18,92,76,59,29.88,29.72,29.61,10,10,10,28,10,35,0.00,1,,235
2014-2-19,46,36,25,33,30,25,100,79,58,29.95,29.85,29.65,10,10,7,18,8,24,0.00,1,,204
2014-2-20,39,32,24,34,30,19,100,88,76,29.64,29.46,29.26,10,3,0,37,18,47,0.51,8,Fog-Rain-Snow-Thunderstorm,330
2014-2-21,32,25,17,22,15,9,84,71,58,29.91,29.76,29.60,10,10,10,32,14,40,0.00,3,,275
2014-2-22,26,22,17,17,11,7,84,65,46,30.21,30.07,29.92,10,10,10,13,7,16,0.00,2,,347
2014-2-23,22,17,12,10,7,4,80,66,52,30.39,30.34,30.24,10,10,10,20,10,22,0.00,0,,319
2014-2-24,19,15,11,10,8,4,92,74,56,30.44,30.34,30.26,10,5,1,14,6,17,0.02,7,Snow,3
2014-2-25,11,6,1,5,-2,-8,86,72,57,30.48,30.41,30.33,10,10,6,25,14,32,0.01,2,,328
2014-2-26,23,8,-7,12,0,-11,82,70,57,30.47,30.13,29.85,10,10,4,28,15,33,T,0,Snow,276
2014-2-27,12,3,-6,1,-12,-17,73,62,51,30.28,30.17,29.98,10,10,9,31,10,39,0.00,0,,12
2014-2-28,30,14,-3,19,11,-11,84,69,53,30.13,30.00,29.89,10,5,0,21,12,29,0.04,7,Fog-Snow,14